createdAt,value
2017-09-03T00:00:21.235Z,12.50
2017-09-03T00:02:49.592Z,12.40
2017-09-03T00:05:18.165Z,12.40
2017-09-03T00:07:46.493Z,12.40
2017-09-03T00:10:14.820Z,12.50
2017-09-03T00:12:43.365Z,12.40
2017-09-03T00:15:11.748Z,12.40
2017-09-03T00:17:40.129Z,12.40
2017-09-03T00:20:08.848Z,12.40
2017-09-03T00:22:37.225Z,12.40
2017-09-03T00:25:05.544Z,12.30
2017-09-03T00:27:35.167Z,12.30
2017-09-03T00:30:03.537Z,12.30
2017-09-03T00:32:31.971Z,12.30
2017-09-03T00:35:00.533Z,12.20
2017-09-03T00:37:28.891Z,12.20
2017-09-03T00:39:57.203Z,12.20
2017-09-03T00:42:25.800Z,12.10
2017-09-03T00:44:54.202Z,12.10
2017-09-03T00:47:22.582Z,12.00
2017-09-03T00:49:52.978Z,11.90
2017-09-03T00:52:22.106Z,11.90
2017-09-03T00:54:50.453Z,11.80
2017-09-03T00:57:18.978Z,11.80
2017-09-03T00:59:47.366Z,11.80
2017-09-03T01:02:15.768Z,11.80
2017-09-03T01:04:44.327Z,11.80
2017-09-03T01:07:12.689Z,11.80
2017-09-03T01:09:41.383Z,11.80
2017-09-03T01:12:10.029Z,11.90
2017-09-03T01:14:38.410Z,11.90
2017-09-03T01:17:06.733Z,11.90
2017-09-03T01:19:35.399Z,11.80
2017-09-03T01:22:04.721Z,11.70
2017-09-03T01:24:33.102Z,11.70
2017-09-03T01:27:01.560Z,11.70
2017-09-03T01:29:29.960Z,11.70
2017-09-03T01:31:58.444Z,11.70
2017-09-03T01:34:27.238Z,11.70
2017-09-03T01:36:55.708Z,11.70
2017-09-03T01:39:24.025Z,11.70
2017-09-03T01:41:52.749Z,11.60
2017-09-03T01:44:21.095Z,11.60
2017-09-03T01:46:49.445Z,11.60
2017-09-03T01:49:18.116Z,11.60
2017-09-03T01:51:46.473Z,11.60
2017-09-03T01:54:14.842Z,11.50
2017-09-03T01:56:43.425Z,11.40
2017-09-03T01:59:11.764Z,11.50
2017-09-03T02:01:40.134Z,11.50
2017-09-03T02:04:08.725Z,11.50
2017-09-03T02:06:37.059Z,11.60
2017-09-03T02:09:05.417Z,11.60
2017-09-03T02:11:34.004Z,11.50
2017-09-03T02:14:02.349Z,11.50
2017-09-03T02:16:30.713Z,11.50
2017-09-03T02:18:59.329Z,11.40
2017-09-03T02:21:27.861Z,11.40
2017-09-03T02:23:56.391Z,11.30
2017-09-03T02:26:24.955Z,11.30
2017-09-03T02:28:53.302Z,11.20
2017-09-03T02:31:21.619Z,11.20
2017-09-03T02:33:50.125Z,11.10
2017-09-03T02:36:19.219Z,11.00
2017-09-03T02:38:47.626Z,11.00
2017-09-03T02:41:16.008Z,11.00
2017-09-03T02:43:44.355Z,10.90
2017-09-03T02:46:13.605Z,10.90
2017-09-03T02:48:42.205Z,10.90
2017-09-03T02:51:10.546Z,10.90
2017-09-03T02:53:38.950Z,10.90
2017-09-03T02:56:07.531Z,10.90
2017-09-03T02:58:35.892Z,10.90
2017-09-03T03:01:04.296Z,10.90
2017-09-03T03:03:32.817Z,10.90
2017-09-03T03:06:01.159Z,10.90
2017-09-03T03:08:29.517Z,10.90
2017-09-03T03:10:58.244Z,10.90
2017-09-03T03:13:26.622Z,10.90
2017-09-03T03:15:54.989Z,11.00
2017-09-03T03:18:23.329Z,10.90
2017-09-03T03:20:51.637Z,10.90
2017-09-03T03:23:19.985Z,10.90
2017-09-03T03:25:49.304Z,10.90
2017-09-03T03:28:17.631Z,10.90
2017-09-03T03:30:46.734Z,10.90
2017-09-03T03:33:15.240Z,10.90
2017-09-03T03:35:43.562Z,10.90
2017-09-03T03:38:11.902Z,10.90
2017-09-03T03:40:41.506Z,10.80
2017-09-03T03:43:09.819Z,10.80
2017-09-03T03:45:38.156Z,10.80
2017-09-03T03:48:06.538Z,10.80
2017-09-03T03:50:34.853Z,10.80
2017-09-03T03:53:03.207Z,10.70
2017-09-03T03:55:31.582Z,10.70
2017-09-03T03:58:00.159Z,10.60
2017-09-03T04:00:28.533Z,10.60
2017-09-03T04:02:57.096Z,10.50
2017-09-03T04:05:25.425Z,10.40
2017-09-03T04:07:53.751Z,10.30
2017-09-03T04:10:23.257Z,10.20
2017-09-03T04:12:51.587Z,10.20
2017-09-03T04:15:19.914Z,10.10
2017-09-03T04:17:49.451Z,10.10
2017-09-03T04:20:17.794Z,10.20
2017-09-03T04:22:46.175Z,10.20
2017-09-03T04:25:14.535Z,10.30
2017-09-03T04:27:42.935Z,10.40
2017-09-03T04:30:11.261Z,10.40
2017-09-03T04:32:39.644Z,10.30
2017-09-03T04:35:07.973Z,10.30
2017-09-03T04:37:36.326Z,10.20
2017-09-03T04:40:05.062Z,10.10
2017-09-03T04:42:33.465Z,10.00
2017-09-03T04:45:01.820Z,10.00
2017-09-03T04:47:30.526Z,10.10
2017-09-03T04:49:58.880Z,10.20
2017-09-03T04:52:27.415Z,10.20
2017-09-03T04:54:55.999Z,10.30
2017-09-03T04:57:25.404Z,10.40
2017-09-03T04:59:53.946Z,10.30
2017-09-03T05:02:22.521Z,10.40
2017-09-03T05:04:50.865Z,10.50
2017-09-03T05:07:19.186Z,10.50
2017-09-03T05:09:48.225Z,10.40
2017-09-03T05:12:16.550Z,10.50
2017-09-03T05:14:44.880Z,10.40
2017-09-03T05:17:14.211Z,10.40
2017-09-03T05:19:42.602Z,10.40
2017-09-03T05:22:10.968Z,10.50
2017-09-03T05:24:39.585Z,10.40
2017-09-03T05:27:07.994Z,10.30
2017-09-03T05:29:36.361Z,10.30
2017-09-03T05:32:05.060Z,10.40
2017-09-03T05:34:33.377Z,10.50
2017-09-03T05:37:01.779Z,10.50
2017-09-03T05:39:30.194Z,10.60
2017-09-03T05:41:58.712Z,10.70
2017-09-03T05:44:27.228Z,10.80
2017-09-03T05:46:55.984Z,10.80
2017-09-03T05:49:24.362Z,10.80
2017-09-03T05:51:52.692Z,10.90
2017-09-03T05:54:21.249Z,10.90
2017-09-03T05:56:49.584Z,10.90
2017-09-03T05:59:17.931Z,10.90
2017-09-03T06:01:46.563Z,11.00
2017-09-03T06:04:14.897Z,11.10
2017-09-03T06:06:43.222Z,11.20
2017-09-03T06:09:11.808Z,11.30
2017-09-03T06:11:40.281Z,11.40
2017-09-03T06:14:08.625Z,11.50
2017-09-03T06:16:37.016Z,11.70
2017-09-03T06:19:05.352Z,12.00
2017-09-03T06:21:33.719Z,12.30
2017-09-03T06:24:02.426Z,12.50
2017-09-03T06:26:31.764Z,12.50
2017-09-03T06:29:00.166Z,12.60
2017-09-03T06:31:28.750Z,12.70
2017-09-03T06:33:57.106Z,12.70
2017-09-03T06:36:25.454Z,12.80
2017-09-03T06:38:54.250Z,12.90
2017-09-03T06:41:22.600Z,13.00
2017-09-03T06:43:50.923Z,13.00
2017-09-03T06:46:19.340Z,13.10
2017-09-03T06:48:47.687Z,13.30
2017-09-03T06:51:16.070Z,13.50
2017-09-03T06:53:44.487Z,13.60
2017-09-03T06:56:13.773Z,13.70
2017-09-03T06:58:42.093Z,13.80
2017-09-03T07:01:10.759Z,14.00
2017-09-03T07:03:39.091Z,14.10
2017-09-03T07:06:07.622Z,14.20
2017-09-03T07:08:37.049Z,14.40
2017-09-03T07:11:05.403Z,14.30
2017-09-03T07:13:33.761Z,14.50
2017-09-03T07:16:02.497Z,14.60
2017-09-03T07:18:30.974Z,14.80
2017-09-03T07:20:59.543Z,15.00
2017-09-03T07:23:28.936Z,15.30
2017-09-03T07:25:57.366Z,15.30
2017-09-03T07:28:25.810Z,15.50
2017-09-03T07:30:54.296Z,15.50
2017-09-03T07:33:22.637Z,15.60
2017-09-03T07:35:50.971Z,15.60
2017-09-03T07:38:19.639Z,15.50
2017-09-03T07:40:48.036Z,15.60
2017-09-03T07:43:16.362Z,15.70
2017-09-03T07:45:44.930Z,15.90
2017-09-03T07:48:13.274Z,16.00
2017-09-03T07:50:41.603Z,16.00
2017-09-03T07:53:10.122Z,16.20
2017-09-03T07:55:38.450Z,16.20
2017-09-03T07:58:06.789Z,16.30
2017-09-03T08:00:35.321Z,16.20
2017-09-03T08:03:03.692Z,16.30
2017-09-03T08:05:32.040Z,16.40
2017-09-03T08:08:00.656Z,16.20
2017-09-03T08:10:29.169Z,16.40
2017-09-03T08:12:57.568Z,16.50
2017-09-03T08:15:26.675Z,16.40
2017-09-03T08:17:55.049Z,16.30
2017-09-03T08:20:23.367Z,16.30
2017-09-03T08:22:52.771Z,16.40
2017-09-03T08:25:21.085Z,16.40
2017-09-03T08:27:49.476Z,16.60
2017-09-03T08:30:18.160Z,16.70
2017-09-03T08:32:46.490Z,16.90
2017-09-03T08:35:14.921Z,17.00
2017-09-03T08:37:44.628Z,17.00
2017-09-03T08:40:12.994Z,16.80
2017-09-03T08:42:41.831Z,16.70
2017-09-03T08:45:10.579Z,16.70
2017-09-03T08:47:40.845Z,16.60
2017-09-03T08:50:10.061Z,17.00
2017-09-03T08:52:38.780Z,16.90
2017-09-03T08:55:07.122Z,17.30
2017-09-03T08:57:35.438Z,17.60
2017-09-03T09:00:04.073Z,17.60
2017-09-03T09:02:32.599Z,17.30
2017-09-03T09:05:01.059Z,17.30
2017-09-03T09:07:29.917Z,17.60
2017-09-03T09:09:58.499Z,17.70
2017-09-03T09:12:26.977Z,18.00
2017-09-03T09:14:55.667Z,18.70
2017-09-03T09:17:24.011Z,19.70
2017-09-03T09:19:52.381Z,20.80
2017-09-03T09:22:23.757Z,21.90
2017-09-03T09:24:53.013Z,22.70
2017-09-03T09:27:21.382Z,22.00
2017-09-03T09:29:50.104Z,22.00
2017-09-03T09:32:18.445Z,22.80
2017-09-03T09:34:46.784Z,23.40
2017-09-03T09:37:15.320Z,23.70
2017-09-03T09:39:44.274Z,24.10
2017-09-03T09:42:12.772Z,24.20
2017-09-03T09:44:41.207Z,24.60
2017-09-03T09:47:10.297Z,25.70
2017-09-03T09:49:38.905Z,25.70
2017-09-03T09:52:07.537Z,26.20
2017-09-03T09:54:36.297Z,25.30
2017-09-03T09:57:04.784Z,25.00
2017-09-03T09:59:33.455Z,24.10
2017-09-03T10:02:01.932Z,23.90
2017-09-03T10:04:30.316Z,23.60
2017-09-03T10:06:59.007Z,23.70
2017-09-03T10:09:27.903Z,24.80
2017-09-03T10:11:56.735Z,25.60
2017-09-03T10:14:25.650Z,25.50
2017-09-03T10:16:55.467Z,26.90
2017-09-03T10:19:23.940Z,27.70
2017-09-03T10:21:52.625Z,28.70
2017-09-03T10:24:21.622Z,28.60
2017-09-03T10:26:49.996Z,27.40
2017-09-03T10:29:18.467Z,26.50
2017-09-03T10:31:46.856Z,26.50
2017-09-03T10:34:15.179Z,26.50
2017-09-03T10:36:43.736Z,25.70
2017-09-03T10:39:12.209Z,24.20
2017-09-03T10:41:41.073Z,24.50
2017-09-03T10:44:09.629Z,24.10
2017-09-03T10:46:37.989Z,23.80
2017-09-03T10:49:06.367Z,23.70
2017-09-03T10:51:35.573Z,22.80
2017-09-03T10:54:04.050Z,23.00
2017-09-03T10:56:32.458Z,22.30
2017-09-03T10:59:01.335Z,21.30
2017-09-03T11:01:29.722Z,20.40
2017-09-03T11:03:58.106Z,20.30
2017-09-03T11:06:26.755Z,19.90
2017-09-03T11:08:55.097Z,19.60
2017-09-03T11:11:23.517Z,19.30
2017-09-03T11:13:52.057Z,19.20
2017-09-03T11:16:20.367Z,19.40
2017-09-03T11:18:48.678Z,20.20
2017-09-03T11:21:17.034Z,20.80
2017-09-03T11:23:45.373Z,21.60
2017-09-03T11:26:13.748Z,22.20
2017-09-03T11:28:42.287Z,22.90
2017-09-03T11:31:10.912Z,23.20
2017-09-03T11:33:40.416Z,24.00
2017-09-03T11:36:09.077Z,23.10
2017-09-03T11:38:38.777Z,22.40
2017-09-03T11:41:07.524Z,21.70
2017-09-03T11:43:35.912Z,21.50
2017-09-03T11:46:04.257Z,21.10
2017-09-03T11:48:32.607Z,21.00
2017-09-03T11:51:01.278Z,20.40
2017-09-03T11:55:47.591Z,22.30
2017-09-03T11:58:16.205Z,22.60
2017-09-03T12:00:44.525Z,23.00
2017-09-03T12:03:12.841Z,23.60
2017-09-03T12:05:41.597Z,23.80
2017-09-03T12:13:08.421Z,24.30
2017-09-03T12:20:39.587Z,25.00
2017-09-03T12:23:08.693Z,25.60
2017-09-03T12:25:37.857Z,26.40
2017-09-03T12:28:08.366Z,26.80
2017-09-03T12:30:37.666Z,26.60
2017-09-03T12:33:06.811Z,27.10
2017-09-03T12:35:36.158Z,27.50
2017-09-03T12:38:05.266Z,27.60
2017-09-03T12:40:34.460Z,26.90
2017-09-03T12:43:03.660Z,26.20
2017-09-03T12:45:33.041Z,26.20
2017-09-03T12:48:02.290Z,26.40
2017-09-03T12:50:31.745Z,26.00
2017-09-03T12:53:01.566Z,25.10
2017-09-03T12:55:30.754Z,24.60
2017-09-03T12:58:00.275Z,24.20
2017-09-03T13:00:29.467Z,23.60
2017-09-03T13:02:58.651Z,22.70
2017-09-03T13:05:28.483Z,22.40
2017-09-03T13:07:59.682Z,23.10
2017-09-03T13:10:28.915Z,24.10
2017-09-03T13:13:00.194Z,24.80
2017-09-03T13:15:29.395Z,24.70
2017-09-03T13:17:59.414Z,25.10
2017-09-03T13:20:29.065Z,26.30
2017-09-03T13:22:59.797Z,26.80
2017-09-03T13:25:29.407Z,27.40
2017-09-03T13:27:59.746Z,27.70
2017-09-03T13:30:28.927Z,26.90
2017-09-03T13:32:58.231Z,26.00
2017-09-03T13:35:28.103Z,25.10
2017-09-03T13:37:57.841Z,24.70
2017-09-03T13:40:27.346Z,25.20
2017-09-03T13:42:57.440Z,25.90
2017-09-03T13:45:26.676Z,26.40
2017-09-03T13:47:56.163Z,26.30
2017-09-03T13:50:25.330Z,26.20
2017-09-03T13:52:54.532Z,26.50
2017-09-03T13:55:23.906Z,26.80
2017-09-03T13:57:53.161Z,26.90
2017-09-03T14:00:22.247Z,26.90
2017-09-03T14:02:51.544Z,26.80
2017-09-03T14:05:20.637Z,26.70
2017-09-03T14:07:49.821Z,25.80
2017-09-03T14:10:19.167Z,24.90
2017-09-03T14:12:48.290Z,24.10
2017-09-03T14:15:17.411Z,23.30
2017-09-03T14:17:46.849Z,22.70
2017-09-03T14:20:15.921Z,22.30
2017-09-03T14:22:45.046Z,22.00
2017-09-03T14:25:14.607Z,21.70
2017-09-03T14:27:43.702Z,21.50
2017-09-03T14:30:12.850Z,21.40
2017-09-03T14:32:42.305Z,21.30
2017-09-03T14:35:11.424Z,21.40
2017-09-03T14:37:40.656Z,22.20
2017-09-03T14:40:09.939Z,23.00
2017-09-03T14:42:39.102Z,23.00
2017-09-03T14:45:08.191Z,22.80
2017-09-03T14:47:37.625Z,22.70
2017-09-03T14:50:06.772Z,22.40
2017-09-03T14:52:35.994Z,22.00
2017-09-03T14:55:07.702Z,21.70
2017-09-03T14:57:37.571Z,21.10
2017-09-03T15:00:07.511Z,20.90
2017-09-03T15:02:36.906Z,20.80
2017-09-03T15:05:06.948Z,20.50
2017-09-03T15:07:36.175Z,20.20
2017-09-03T15:10:06.459Z,20.00
2017-09-03T15:12:35.611Z,20.00
2017-09-03T15:15:04.727Z,19.70
2017-09-03T15:17:34.062Z,19.70
2017-09-03T15:20:03.233Z,19.60
2017-09-03T15:22:32.456Z,19.50
2017-09-03T15:25:02.052Z,19.60
2017-09-03T15:27:31.203Z,19.70
2017-09-03T15:30:00.353Z,19.80
2017-09-03T15:32:29.620Z,20.00
2017-09-03T15:34:58.849Z,20.10
2017-09-03T15:37:28.008Z,20.00
2017-09-03T15:39:58.281Z,20.10
2017-09-03T15:42:27.635Z,20.10
2017-09-03T15:44:56.731Z,19.90
2017-09-03T15:47:26.101Z,19.80
2017-09-03T15:49:55.240Z,19.70
2017-09-03T15:52:25.790Z,19.50
2017-09-03T15:54:55.598Z,19.50
2017-09-03T15:57:24.726Z,19.40
2017-09-03T15:59:53.968Z,19.40
2017-09-03T16:02:23.257Z,19.40
2017-09-03T16:04:52.361Z,19.40
2017-09-03T16:07:21.518Z,19.30
2017-09-03T16:09:51.894Z,19.30
2017-09-03T16:12:21.991Z,19.30
2017-09-03T16:14:51.117Z,19.30
2017-09-03T16:17:21.334Z,19.20
2017-09-03T16:19:51.506Z,19.10
2017-09-03T16:22:20.636Z,19.10
2017-09-03T16:24:50.075Z,19.20
2017-09-03T16:27:19.245Z,19.30
2017-09-03T16:29:48.343Z,19.40
2017-09-03T16:32:17.845Z,19.30
2017-09-03T16:34:46.954Z,19.40
2017-09-03T16:37:16.108Z,19.30
2017-09-03T16:39:46.278Z,19.10
2017-09-03T16:42:16.370Z,18.80
2017-09-03T16:44:45.575Z,18.60
2017-09-03T16:47:14.741Z,18.40
2017-09-03T16:49:43.872Z,18.50
2017-09-03T16:52:13.072Z,18.30
2017-09-03T16:54:42.368Z,18.30
2017-09-03T16:57:11.479Z,18.50
2017-09-03T16:59:40.625Z,18.50
2017-09-03T17:02:09.866Z,18.60
2017-09-03T17:04:39.054Z,18.60
2017-09-03T17:07:09.110Z,18.60
2017-09-03T17:09:38.497Z,18.60
2017-09-03T17:12:07.695Z,18.50
2017-09-03T17:14:36.870Z,18.60
2017-09-03T17:17:06.200Z,18.30
2017-09-03T17:19:35.366Z,18.00
2017-09-03T17:22:04.777Z,17.90
2017-09-03T17:24:34.074Z,17.60
2017-09-03T17:27:05.233Z,17.40
2017-09-03T17:29:36.388Z,17.20
2017-09-03T17:32:06.205Z,17.20
2017-09-03T17:34:45.647Z,17.10
2017-09-03T17:37:21.262Z,17.10
2017-09-03T17:39:52.362Z,17.10
2017-09-03T17:42:24.281Z,17.10
2017-09-03T17:44:53.913Z,17.00
2017-09-03T17:47:23.082Z,16.90
2017-09-03T17:49:52.249Z,16.80
2017-09-03T17:52:21.699Z,16.80
2017-09-03T17:54:50.894Z,16.70
2017-09-03T17:57:20.061Z,16.70
2017-09-03T17:59:49.527Z,16.70
2017-09-03T18:02:18.671Z,16.60
2017-09-03T18:04:47.796Z,16.60
2017-09-03T18:07:16.961Z,16.70
2017-09-03T18:09:46.154Z,16.70
2017-09-03T18:12:15.579Z,16.70
2017-09-03T18:14:44.859Z,16.60
2017-09-03T18:17:15.080Z,16.60
2017-09-03T18:19:44.622Z,16.70
2017-09-03T18:22:15.756Z,16.70
2017-09-03T18:24:44.893Z,16.70
2017-09-03T18:27:14.028Z,16.70
2017-09-03T18:32:52.646Z,16.60
2017-09-03T18:35:21.954Z,16.50
2017-09-03T18:38:05.954Z,16.50
2017-09-03T18:40:47.074Z,16.40
2017-09-03T18:43:18.619Z,16.40
2017-09-03T18:45:58.755Z,16.20
2017-09-03T18:48:28.019Z,16.20
2017-09-03T18:51:03.884Z,16.20
2017-09-03T18:53:37.100Z,16.20
2017-09-03T18:56:06.861Z,16.10
2017-09-03T18:58:45.891Z,16.10
2017-09-03T19:01:15.090Z,16.00
2017-09-03T19:03:44.265Z,15.90
2017-09-03T19:06:15.003Z,15.90
2017-09-03T19:08:44.828Z,16.00
2017-09-03T19:11:14.775Z,16.00
2017-09-03T19:13:43.939Z,16.00
2017-09-03T19:16:13.256Z,16.00
2017-09-03T19:18:43.310Z,16.00
2017-09-03T19:21:12.564Z,15.90
2017-09-03T19:23:42.038Z,15.80
2017-09-03T19:26:11.177Z,15.70
2017-09-03T19:28:40.365Z,15.50
2017-09-03T19:31:09.706Z,15.40
2017-09-03T19:33:40.001Z,15.40
2017-09-03T19:36:09.124Z,15.40
2017-09-03T19:38:45.704Z,15.50
2017-09-03T19:41:14.885Z,15.50
2017-09-03T19:43:44.004Z,15.50
2017-09-03T19:46:13.157Z,15.50
2017-09-03T19:48:42.381Z,15.30
2017-09-03T19:51:11.486Z,15.20
2017-09-03T19:53:40.678Z,15.20
2017-09-03T19:56:09.966Z,15.20
2017-09-03T19:58:39.062Z,15.30
2017-09-03T20:01:08.509Z,15.20
2017-09-03T20:03:37.618Z,15.20
2017-09-03T20:06:07.170Z,15.20
2017-09-03T20:08:36.719Z,15.10
2017-09-03T20:11:05.873Z,15.10
2017-09-03T20:13:35.021Z,15.00
2017-09-03T20:16:04.510Z,15.00
2017-09-03T20:18:33.677Z,14.90
2017-09-03T20:21:02.943Z,14.90
2017-09-03T20:23:32.221Z,14.90
2017-09-03T20:26:01.513Z,14.80
2017-09-03T20:28:30.880Z,14.70
2017-09-03T20:31:00.183Z,14.60
2017-09-03T20:33:29.665Z,14.40
2017-09-03T20:35:58.961Z,14.30
2017-09-03T20:38:28.321Z,14.30
2017-09-03T20:40:57.602Z,14.30
2017-09-03T20:43:26.784Z,14.20
2017-09-03T20:45:56.266Z,14.10
2017-09-03T20:48:25.957Z,14.10
2017-09-03T20:50:55.243Z,14.00
2017-09-03T20:53:24.708Z,14.00
2017-09-03T20:55:53.894Z,14.00
2017-09-03T20:58:23.213Z,13.90
2017-09-03T21:00:52.534Z,13.90
2017-09-03T21:03:21.701Z,13.90
2017-09-03T21:05:50.854Z,13.90
2017-09-03T21:08:20.337Z,13.80
2017-09-03T21:10:49.534Z,13.80
2017-09-03T21:13:18.730Z,13.80
2017-09-03T21:15:48.148Z,13.60
2017-09-03T21:18:17.274Z,13.50
2017-09-03T21:20:46.410Z,13.40
2017-09-03T21:23:15.837Z,13.40
2017-09-03T21:25:44.946Z,13.30
2017-09-03T21:28:14.121Z,13.20
2017-09-03T21:30:43.432Z,13.10
2017-09-03T21:33:12.748Z,13.10
2017-09-03T21:35:41.940Z,13.10
2017-09-03T21:38:11.397Z,13.20
2017-09-03T21:40:41.088Z,13.30
2017-09-03T21:43:10.284Z,13.40
2017-09-03T21:45:39.437Z,13.40
2017-09-03T21:48:08.613Z,13.40
2017-09-03T21:50:38.771Z,13.40
2017-09-03T21:53:08.002Z,13.40
2017-09-03T21:55:37.179Z,13.30
2017-09-03T21:58:06.443Z,13.20
2017-09-03T22:00:35.752Z,13.20
2017-09-03T22:03:04.977Z,13.10
2017-09-03T22:05:34.178Z,13.10
2017-09-03T22:08:03.364Z,13.10
2017-09-03T22:10:32.517Z,13.00
2017-09-03T22:13:01.728Z,13.00
2017-09-03T22:15:31.129Z,13.00
2017-09-03T22:18:00.401Z,13.00
2017-09-03T22:20:29.524Z,13.00
2017-09-03T22:22:58.892Z,13.00
2017-09-03T22:25:28.092Z,12.90
2017-09-03T22:27:57.422Z,12.90
2017-09-03T22:30:26.825Z,12.90
2017-09-03T22:32:56.936Z,12.90
2017-09-03T22:35:26.162Z,12.80
2017-09-03T22:37:55.797Z,12.80
2017-09-03T22:40:24.920Z,12.80
2017-09-03T22:42:54.078Z,12.80
2017-09-03T22:45:24.583Z,12.80
2017-09-03T22:47:53.897Z,12.80
2017-09-03T22:50:23.039Z,12.80
2017-09-03T22:52:52.955Z,12.70
2017-09-03T22:55:22.046Z,12.70
2017-09-03T22:57:51.991Z,12.70
2017-09-03T23:00:21.526Z,12.70
2017-09-03T23:02:50.818Z,12.60
2017-09-03T23:05:19.992Z,12.50
2017-09-03T23:07:49.507Z,12.40
2017-09-03T23:10:18.645Z,12.30
2017-09-03T23:12:47.817Z,12.40
2017-09-03T23:15:17.002Z,12.50
2017-09-03T23:17:46.106Z,12.40
2017-09-03T23:20:15.226Z,12.30
2017-09-03T23:22:44.681Z,12.10
2017-09-03T23:25:13.798Z,12.10
2017-09-03T23:27:43.693Z,12.30
2017-09-03T23:30:12.971Z,12.30
2017-09-03T23:32:42.109Z,12.40
2017-09-03T23:35:12.100Z,12.40
2017-09-03T23:37:41.261Z,12.40
2017-09-03T23:40:10.398Z,12.40
2017-09-03T23:42:39.565Z,12.30
2017-09-03T23:45:08.806Z,12.30
2017-09-03T23:47:37.944Z,12.00
2017-09-03T23:50:07.193Z,12.00
2017-09-03T23:52:36.566Z,11.90
2017-09-03T23:55:05.690Z,11.90
2017-09-03T23:57:34.905Z,11.90
